Latest Weather Observations for Horsham

IDV60801

Issued at 12:34 pm EDT Monday 27 February 2017 (issued every 30 minutes, with the page automatically refreshed every 10 minutes)

About weather observations | Map of weather stations | Latest weather observations for VIC | Other Formats
Station Details ID: 079100 Name: HORSHAM AERODROME Lat: -36.67 Lon: 142.17 Height: 133.8 m
Data from the previous 72 hours. | See also: Recent months at Horsham
Date/Time
EDT
Temp
°C
App
Temp
°C
Dew
Point
°C
Rel
Hum
%
Delta-T
°C
Wind Press
QNH
hPa
Press
MSL
hPa
Rain since
9am
mm
Dir  Spd
km/h
Gust
km/h
Spd
kts
Gust
kts
27/12:30pm 31.0 27.2 9.8 27 12.0 NNE 20 33 11 18 1020.8 1020.4 0.0
27/12:00pm 29.7 26.0 10.3 30 11.0 NE 20 32 11 17 1021.1 1020.7 0.0
27/11:30am 29.4 25.6 11.0 32 10.6 NE 22 35 12 19 1021.2 1020.8 0.0
27/11:00am 27.9 23.4 10.1 33 10.0 NE 24 33 13 18 1021.5 1021.0 0.0
27/10:30am 26.9 22.8 10.2 35 9.4 NE 22 32 12 17 1021.6 1021.1 0.0
27/10:00am 25.4 21.0 10.4 39 8.4 NE 24 33 13 18 1021.6 1021.1 0.0
27/09:30am 23.9 18.7 10.2 42 7.6 ENE 28 33 15 18 1021.5 1021.0 0.0
27/09:00am 22.7 18.0 10.5 46 6.7 ENE 26 35 14 19 1021.4 1020.9 0.0
27/08:30am 20.8 16.8 10.6 52 5.6 E 22 28 12 15 1021.1 1020.7 0.0
27/08:00am 19.2 15.3 10.7 58 4.6 E 22 26 12 14 1021.0 1020.6 0.0
27/07:30am 16.9 13.6 11.0 68 3.2 E 19 20 10 11 1020.8 1020.4 0.0
27/07:00am 14.0 10.8 9.8 76 2.2 E 17 19 9 10 1020.5 1020.1 0.0
27/06:30am 14.7 13.2 10.7 77 2.1 E 9 11 5 6 1020.3 1019.9 0.0
27/06:00am 14.5 12.2 10.3 76 2.2 ESE 13 15 7 8 1020.0 1019.6 0.0
27/05:30am 14.3 11.7 9.5 73 2.5 ESE 13 15 7 8 1019.6 1019.2 0.0
27/05:00am 15.4 13.1 10.4 72 2.6 ESE 13 17 7 9 1019.3 1018.9 0.0
27/04:30am 15.8 13.2 10.8 72 2.7 ESE 15 17 8 9 1019.2 1018.7 0.0
27/04:00am 15.6 12.3 11.0 74 2.5 ESE 19 20 10 11 1019.2 1018.7 0.0
27/03:30am 14.3 11.3 7.8 65 3.2 ESE 13 17 7 9 1019.3 1018.9 0.0
27/03:00am 15.1 12.2 8.1 63 3.5 ESE 13 13 7 7 1019.3 1018.9 0.0
27/02:30am 16.4 14.3 8.4 59 4.1 SE 9 11 5 6 1019.3 1018.9 0.0
27/02:00am 16.1 13.2 8.3 60 4.0 SE 13 15 7 8 1019.2 1018.7 0.0
27/01:30am 18.3 16.8 9.1 55 4.8 SE 7 9 4 5 1019.2 1018.7 0.0
27/01:00am 17.2 14.7 8.4 56 4.5 SE 11 13 6 7 1019.0 1018.5 0.0
27/12:30am 15.7 13.9 5.6 51 4.9 NNE 4 13 2 7 1019.0 1018.5 0.0
27/12:00am 19.4 18.9 7.8 47 6.0 CALM 0 0 0 0 1018.7 1018.2 0.0
 
Date/Time
EDT
Temp
°C
App
Temp
°C
Dew
Point
°C
Rel
Hum
%
Delta-T
°C
Wind Press
QNH
hPa
Press
MSL
hPa
Rain since
9am
mm
Dir  Spd
km/h
Gust
km/h
Spd
kts
Gust
kts
26/11:30pm 19.1 18.5 7.5 47 5.9 CALM 0 0 0 0 1018.7 1018.2 0.0
26/11:00pm 19.1 18.1 7.2 46 6.0 NNW 2 9 1 5 1018.8 1018.3 0.0
26/10:30pm 20.2 19.1 6.9 42 6.8 NE 2 7 1 4 1018.7 1018.2 0.0
26/10:00pm 22.9 22.2 8.6 40 7.6 SSE 2 7 1 4 1018.6 1018.1 0.0
26/09:30pm 23.9 23.0 7.9 36 8.5 SE 2 6 1 3 1018.2 1017.7 0.0
26/09:00pm 25.0 22.9 8.1 34 9.1 SE 9 9 5 5 1017.9 1017.4 0.0
26/08:30pm 25.5 23.0 6.7 30 9.9 SE 9 11 5 6 1017.6 1017.1 0.0
26/08:00pm 28.2 26.4 8.0 28 11.0 ENE 7 9 4 5 1017.3 1016.8 0.0
26/07:30pm 29.9 27.9 7.2 24 12.3 NNE 7 15 4 8 1017.1 1016.6 0.0
26/07:00pm 30.6 27.1 7.1 23 12.8 NE 15 20 8 11 1017.0 1016.5 0.0
26/06:30pm 30.7 28.6 6.6 22 13.0 N 7 15 4 8 1016.9 1016.4 0.0
26/06:00pm 31.0 27.2 7.5 23 12.9 NNE 17 22 9 12 1016.8 1016.3 0.0
26/05:30pm 30.8 28.4 8.5 25 12.4 ENE 11 19 6 10 1016.7 1016.2 0.0
26/05:00pm 31.0 28.0 7.5 23 12.9 NE 13 20 7 11 1016.8 1016.3 0.0
26/04:30pm 30.9 27.6 8.0 24 12.7 NNE 15 24 8 13 1017.0 1016.5 0.0
26/04:00pm 30.7 28.0 9.0 26 12.2 N 13 24 7 13 1017.3 1016.8 0.0
26/03:30pm 29.9 26.7 8.3 26 11.9 NE 15 28 8 15 1017.6 1017.1 0.0
26/03:00pm 30.1 26.5 8.5 26 12.0 NNE 17 32 9 17 1017.9 1017.4 0.0
26/02:30pm 29.0 25.4 9.7 30 10.9 NE 19 26 10 14 1018.2 1017.7 0.0
26/02:00pm 28.1 24.8 9.4 31 10.4 NE 17 26 9 14 1018.5 1018.0 0.0
26/01:30pm 27.9 25.6 10.6 34 9.8 ENE 13 24 7 13 1018.8 1018.3 0.0
26/01:00pm 26.8 24.7 11.3 38 8.8 NE 13 26 7 14 1019.2 1018.7 0.0
26/12:30pm 25.2 22.5 11.7 43 7.7 ENE 17 24 9 13 1019.6 1019.2 0.0
26/12:00pm 24.1 20.9 11.4 45 7.2 ENE 19 24 10 13 1019.8 1019.4 0.0
26/11:30am 23.5 20.3 11.2 46 6.9 E 19 30 10 16 1020.1 1019.7 0.0
26/11:00am 22.2 18.9 11.6 51 5.9 E 20 28 11 15 1020.2 1019.8 0.0
26/10:30am 21.1 17.4 11.4 54 5.4 E 22 32 12 17 1020.3 1019.9 0.0
26/10:00am 20.1 15.6 11.3 57 4.9 ESE 26 32 14 17 1020.3 1019.9 0.0
26/09:30am 17.1 14.7 11.4 69 3.1 ESE 15 20 8 11 1020.4 1020.0 0.0
26/09:00am 13.6 11.8 10.8 83 1.5 S 11 13 6 7 1020.4 1020.0 0.0
26/08:30am 10.2 8.7 9.3 94 0.5 SW 7 9 4 5 1020.4 1020.0 0.0
26/08:00am 9.2 7.2 8.7 97 0.2 SW 9 13 5 7 1020.2 1019.8 0.0
26/07:30am 7.8 5.1 7.4 97 0.2 SSW 11 13 6 7 1020.0 1019.6 0.0
26/07:07am 7.5 4.7 6.9 96 0.3 SSW 11 13 6 7 1019.9 1019.5 0.0
26/07:00am 7.4 4.2 6.8 96 0.3 SSW 13 15 7 8 1019.8 1019.4 0.0
26/06:55am 7.4 4.2 6.8 96 0.3 SSW 13 17 7 9 1019.8 1019.4 0.0
26/06:30am 8.6 5.6 7.8 95 0.4 SW 13 15 7 8 1019.5 1019.1 0.0
26/06:00am 8.9 6.0 8.1 95 0.4 SW 13 15 7 8 1019.4 1019.0 0.0
26/05:30am 8.1 5.3 7.0 93 0.5 SW 11 15 6 8 1019.4 1019.0 0.0
26/05:00am 7.8 4.9 6.3 90 0.7 SW 11 13 6 7 1019.6 1019.2 0.0
26/04:30am 7.6 5.0 6.1 90 0.7 WSW 9 13 5 7 1019.6 1019.2 0.0
26/04:00am 7.6 5.4 6.2 91 0.6 WSW 7 7 4 4 1019.8 1019.4 0.0
26/03:30am 7.6 5.3 5.9 89 0.8 SSW 7 9 4 5 1020.0 1019.6 0.0
26/03:00am 8.1 4.7 5.9 86 1.0 SSW 13 15 7 8 1020.1 1019.7 0.0
26/02:30am 9.6 6.9 7.2 85 1.1 SSW 11 15 6 8 1020.3 1019.9 0.0
26/02:00am 8.9 6.0 6.5 85 1.1 S 11 13 6 7 1020.9 1020.5 0.0
26/01:30am 8.2 4.8 6.0 86 1.0 S 13 15 7 8 1021.2 1020.8 0.0
26/01:00am 9.2 5.5 6.3 82 1.3 S 15 17 8 9 1021.9 1021.4 0.0
26/12:30am 11.3 7.5 7.4 77 1.9 S 17 19 9 10 1022.0 1021.5 0.0
26/12:00am 11.7 7.4 7.2 74 2.2 S 19 20 10 11 1021.9 1021.4 0.0
 
Date/Time
EDT
Temp
°C
App
Temp
°C
Dew
Point
°C
Rel
Hum
%
Delta-T
°C
Wind Press
QNH
hPa
Press
MSL
hPa
Rain since
9am
mm
Dir  Spd
km/h
Gust
km/h
Spd
kts
Gust
kts
25/11:30pm 12.6 8.1 7.1 69 2.7 S 20 24 11 13 1022.1 1021.6 0.0
25/11:00pm 13.5 8.6 7.1 65 3.1 SSE 22 28 12 15 1022.1 1021.6 0.0
25/10:30pm 14.2 8.9 6.6 60 3.7 S 24 28 13 15 1022.0 1021.5 0.0
25/10:00pm 14.8 9.3 6.1 56 4.2 S 24 30 13 16 1022.1 1021.6 0.0
25/09:30pm 15.8 9.9 6.0 52 4.8 SSE 26 32 14 17 1021.8 1021.3 0.0
25/09:00pm 16.3 10.7 5.3 48 5.3 S 24 30 13 16 1021.6 1021.1 0.0
25/08:30pm 17.6 11.1 4.9 43 6.1 SSE 28 37 15 20 1021.1 1020.7 0.0
25/08:00pm 19.0 12.9 4.7 39 6.9 SSE 26 33 14 18 1020.7 1020.3 0.0
25/07:30pm 20.7 14.1 4.3 34 8.0 SSE 28 35 15 19 1020.5 1020.1 0.0
25/07:00pm 22.0 15.7 3.6 30 8.9 SSE 26 33 14 18 1020.4 1020.0 0.0
25/06:30pm 22.9 16.4 2.4 26 9.8 SSE 26 39 14 21 1020.3 1019.9 0.0
25/06:00pm 23.7 16.7 2.0 24 10.3 S 28 39 15 21 1020.3 1019.9 0.0
25/05:30pm 24.3 17.2 1.2 22 10.9 SE 28 39 15 21 1020.4 1020.0 0.0
25/05:00pm 24.2 18.4 2.4 24 10.5 SSE 22 35 12 19 1020.4 1020.0 0.0
25/04:30pm 24.8 18.7 2.9 24 10.7 SSE 24 44 13 24 1020.7 1020.3 0.0
25/04:00pm 24.2 17.7 2.4 24 10.5 S 26 33 14 18 1021.1 1020.7 0.0
25/03:30pm 23.7 17.7 3.1 26 10.0 SSE 24 39 13 21 1021.5 1021.0 0.0
25/03:00pm 23.8 18.0 4.2 28 9.7 S 24 37 13 20 1021.8 1021.3 0.0
25/02:30pm 21.8 15.6 2.0 27 9.3 SSE 24 35 13 19 1022.3 1021.8 0.0
25/02:00pm 21.6 16.2 4.7 33 8.3 S 22 35 12 19 1022.6 1022.1 0.0
25/01:30pm 21.5 15.6 5.8 36 7.9 SSW 26 37 14 20 1022.9 1022.4 0.0
25/01:00pm 20.7 16.0 5.9 38 7.4 S 20 33 11 18 1023.4 1022.9 0.0
25/12:30pm 20.4 16.3 6.0 39 7.2 SSE 17 28 9 15 1023.8 1023.3 0.0
25/12:00pm 18.9 14.7 5.7 42 6.5 SE 17 26 9 14 1024.0 1023.5 0.0
25/11:30am 18.3 14.2 6.2 45 6.0 SSE 17 32 9 17 1024.0 1023.5 0.0
25/11:00am 18.6 13.2 6.4 45 6.1 SE 24 32 13 17 1024.4 1023.9 0.0
25/10:30am 16.9 13.1 5.8 48 5.4 SE 15 24 8 13 1024.6 1024.1 0.0
25/10:00am 16.7 13.4 6.5 51 5.0 ESE 13 19 7 10 1024.5 1024.0 0.0
25/09:30am 15.3 12.5 7.1 58 4.1 SSE 11 17 6 9 1024.6 1024.1 0.0
25/09:00am 13.9 11.7 7.7 66 3.1 SSE 9 11 5 6 1024.6 1024.1 0.0
25/08:30am 12.3 10.8 8.6 78 1.9 ESE 6 11 3 6 1024.4 1023.9 0.0
25/08:00am 9.2 8.2 7.3 88 0.9 SSE 2 7 1 4 1024.3 1023.8 0.0
25/07:30am 7.5 5.3 6.1 91 0.6 S 7 11 4 6 1024.4 1023.9 0.0
25/07:00am 7.4 4.8 6.2 92 0.5 S 9 13 5 7 1024.2 1023.7 0.0
25/06:30am 7.0 3.5 5.6 91 0.6 S 13 15 7 8 1023.9 1023.4 0.0
25/06:00am 7.5 4.1 6.0 90 0.7 S 13 15 7 8 1023.7 1023.2 0.0
25/05:30am 8.1 6.0 6.7 91 0.7 SSW 7 9 4 5 1023.6 1023.1 0.0
25/05:00am 8.3 5.9 7.1 92 0.6 S 9 11 5 6 1023.4 1022.9 0.0
25/04:30am 8.1 5.6 6.6 90 0.7 S 9 11 5 6 1023.4 1022.9 0.0
25/04:00am 9.2 5.3 7.2 87 0.9 SSW 17 19 9 10 1023.6 1023.1 0.0
25/03:30am 9.2 5.7 7.3 88 0.9 S 15 17 8 9 1023.7 1023.2 0.0
25/03:00am 9.1 5.2 7.1 87 0.9 S 17 19 9 10 1024.2 1023.7 0.0
25/02:30am 10.2 6.4 7.4 83 1.3 S 17 20 9 11 1024.3 1023.8 0.0
25/02:00am 10.3 6.1 7.4 82 1.4 S 19 20 10 11 1024.6 1024.1 0.0
25/01:30am 10.7 6.4 7.2 79 1.7 S 19 19 10 10 1024.8 1024.3 0.0
25/01:00am 11.1 6.8 7.2 77 1.9 S 19 22 10 12 1025.0 1024.5 0.0
25/12:30am 11.6 7.7 7.1 74 2.2 S 17 20 9 11 1025.0 1024.5 0.0
25/12:00am 10.6 6.9 6.4 75 2.0 S 15 17 8 9 1025.0 1024.5 0.0
 
Date/Time
EDT
Temp
°C
App
Temp
°C
Dew
Point
°C
Rel
Hum
%
Delta-T
°C
Wind Press
QNH
hPa
Press
MSL
hPa
Rain since
9am
mm
Dir  Spd
km/h
Gust
km/h
Spd
kts
Gust
kts
24/11:30pm 12.2 8.2 6.7 69 2.6 S 17 19 9 10 1025.3 1024.8 0.0
24/11:00pm 14.0 9.7 7.1 63 3.4 SSE 19 24 10 13 1025.3 1024.8 0.0
24/10:30pm 14.6 10.1 6.9 60 3.8 SSE 20 26 11 14 1025.2 1024.7 0.0
24/10:00pm 15.3 10.0 6.8 57 4.2 S 24 30 13 16 1025.2 1024.7 0.0
24/09:30pm 15.2 10.9 7.0 58 4.1 S 19 22 10 12 1024.8 1024.3 0.0
24/09:00pm 16.8 12.0 7.2 53 4.8 SSE 22 28 12 15 1024.6 1024.1 0.0
24/08:30pm 17.6 11.7 7.4 51 5.2 SSE 28 35 15 19 1024.2 1023.7 0.0
24/08:00pm 18.6 12.0 7.7 49 5.6 S 32 39 17 21 1023.8 1023.3 0.0
24/07:30pm 20.1 13.0 8.1 46 6.3 S 35 43 19 23 1023.6 1023.1 0.0
24/07:00pm 21.5 14.7 7.7 41 7.2 S 33 43 18 23 1023.2 1022.7 0.0
24/06:30pm 22.6 16.3 7.6 38 7.9 S 30 39 16 21 1023.0 1022.5 0.0
24/06:00pm 23.3 16.1 7.8 37 8.2 SSW 35 44 19 24 1022.9 1022.4 0.0
24/05:30pm 23.9 18.0 7.5 35 8.7 S 28 39 15 21 1022.9 1022.4 0.0
24/05:00pm 24.2 18.9 6.9 33 9.0 S 24 35 13 19 1022.8 1022.3 0.0
24/04:30pm 24.7 19.2 7.4 33 9.2 S 26 41 14 22 1022.9 1022.4 0.0
24/04:00pm 24.0 18.4 7.2 34 8.8 S 26 35 14 19 1023.1 1022.6 0.0
24/03:30pm 24.3 17.9 7.0 33 9.1 S 30 43 16 23 1023.3 1022.8 0.0
24/03:00pm 23.3 17.2 6.6 34 8.6 S 28 41 15 22 1023.4 1022.9 0.0
24/02:34pm 23.3 16.9 7.0 35 8.5 SSW 30 48 16 26 1023.7 1023.2 0.0
24/02:30pm 23.1 16.4 7.2 36 8.3 SSW 32 43 17 23 1023.7 1023.2 0.0
24/02:00pm 23.2 17.2 6.9 35 8.4 SSE 28 43 15 23 1024.0 1023.5 0.0
24/01:31pm 22.7 16.8 7.3 37 8.0 S 28 46 15 25 1024.2 1023.7 0.0
24/01:30pm 23.3 17.8 7.4 36 8.3 S 26 41 14 22 1024.2 1023.7 0.0
24/01:00pm 22.1 16.5 7.1 38 7.7 S 26 37 14 20 1024.5 1024.0 0.0

Other Formats:

Comma delimited format used in spreadsheet applications
http://www.bom.gov.au/fwo/IDV60801/IDV60801.95839.axf

JavaScript Object Notation format (JSON) in row-major order
http://www.bom.gov.au/fwo/IDV60801/IDV60801.95839.json